Time;durP1;ratioP1;P1;durP2;ratioP2;P2;SDS_P1;SDS_P2;PMS_P1;PMS_P2;Temp;Humidity;BMP_temperature;BMP_pressure;BME280_temperature;BME280_humidity;BME280_pressure;Samples;Min_cycle;Max_cycle;Signal;HPM_P1;HPM_P2
2024/01/24 00:02:09;;;;;;;44.13;10.73;;;24.10;43.80;;;;;;5073478;28;20199;-79
2024/01/24 00:04:36;;;;;;;56.70;11.30;;;24.10;43.20;;;;;;5076950;28;20195;-79
2024/01/24 00:07:04;;;;;;;41.30;10.17;;;24.10;43.20;;;;;;5070292;28;20204;-79
2024/01/24 00:09:33;;;;;;;41.63;10.77;;;24.10;43.30;;;;;;5069516;28;20290;-79
2024/01/24 00:12:00;;;;;;;47.07;9.27;;;24.10;43.30;;;;;;5069777;28;20220;-79
2024/01/24 00:14:27;;;;;;;46.60;10.27;;;24.10;43.30;;;;;;5068162;28;20200;-79
2024/01/24 00:16:54;;;;;;;50.93;10.90;;;24.10;43.30;;;;;;5068439;28;20241;-79
2024/01/24 00:19:22;;;;;;;39.33;10.00;;;24.10;43.30;;;;;;5069434;28;20306;-79
2024/01/24 00:21:49;;;;;;;50.63;11.37;;;24.10;43.40;;;;;;5074890;28;20286;-79
2024/01/24 00:24:16;;;;;;;53.43;10.27;;;24.10;43.40;;;;;;5086149;28;20209;-79
2024/01/24 00:26:43;;;;;;;42.80;10.80;;;24.10;43.40;;;;;;5068978;28;20290;-80
2024/01/24 00:29:10;;;;;;;38.43;9.20;;;24.10;43.40;;;;;;5088528;28;20217;-79
2024/01/24 00:31:37;;;;;;;53.37;11.73;;;24.10;43.40;;;;;;5088447;28;20306;-79
2024/01/24 00:34:04;;;;;;;64.97;12.13;;;24.10;43.50;;;;;;5085214;28;20682;-79
2024/01/24 00:36:33;;;;;;;38.17;10.63;;;24.10;43.50;;;;;;5068526;28;20342;-78
2024/01/24 00:39:00;;;;;;;53.10;11.67;;;24.10;43.50;;;;;;5068317;28;20210;-79
2024/01/24 00:41:27;;;;;;;44.67;10.47;;;24.10;43.40;;;;;;5068400;28;20207;-79
2024/01/24 00:43:54;;;;;;;48.83;11.43;;;24.10;43.50;;;;;;5067573;28;20286;-79
2024/01/24 00:46:21;;;;;;;46.23;10.47;;;24.10;43.60;;;;;;5067243;28;20204;-79
2024/01/24 00:48:48;;;;;;;52.30;10.20;;;24.10;43.60;;;;;;5078528;28;20210;-79
2024/01/24 00:51:15;;;;;;;37.67;9.70;;;24.10;43.50;;;;;;5088796;28;20202;-79
2024/01/24 00:53:50;;;;;;;60.43;11.90;;;24.10;43.60;;;;;;5087450;28;20815;-79
2024/01/24 00:56:18;;;;;;;46.67;11.30;;;24.10;43.70;;;;;;5070480;28;20226;-79
2024/01/24 00:58:45;;;;;;;69.37;12.40;;;24.10;43.60;;;;;;5082848;28;20199;-79
2024/01/24 01:01:12;;;;;;;74.97;12.60;;;24.10;43.60;;;;;;5068230;28;20207;-80
2024/01/24 01:03:39;;;;;;;42.07;10.50;;;24.10;43.70;;;;;;5068639;28;20203;-80
2024/01/24 01:06:06;;;;;;;49.00;9.77;;;24.10;43.70;;;;;;5067409;28;20778;-79
2024/01/24 01:08:33;;;;;;;43.90;11.60;;;24.10;43.70;;;;;;5067437;28;20322;-80
2024/01/24 01:11:02;;;;;;;53.50;12.73;;;24.10;43.70;;;;;;5067313;28;20294;-79
2024/01/24 01:13:28;;;;;;;69.10;11.53;;;24.00;43.70;;;;;;5067420;28;20319;-79
2024/01/24 01:15:55;;;;;;;49.23;11.57;;;24.10;43.80;;;;;;5073151;28;20229;-79
2024/01/24 01:18:22;;;;;;;45.23;9.90;;;24.00;43.80;;;;;;5079494;28;20310;-80
2024/01/24 01:20:49;;;;;;;48.70;11.00;;;24.00;43.70;;;;;;5077167;28;20203;-80
2024/01/24 01:23:16;;;;;;;44.37;11.40;;;24.00;43.70;;;;;;5076633;28;20210;-79
2024/01/24 01:25:43;;;;;;;40.50;9.03;;;24.00;43.70;;;;;;5078484;28;20193;-79
2024/01/24 01:28:11;;;;;;;39.63;9.97;;;24.10;43.80;;;;;;5085252;28;20293;-79
2024/01/24 01:30:38;;;;;;;45.27;10.17;;;24.00;43.70;;;;;;5087759;28;20218;-79
2024/01/24 01:33:05;;;;;;;78.63;12.50;;;24.00;43.70;;;;;;5080537;28;20195;-79
2024/01/24 01:35:33;;;;;;;50.83;11.17;;;24.00;43.70;;;;;;5080114;28;20217;-79
2024/01/24 01:38:00;;;;;;;49.67;10.47;;;24.00;43.80;;;;;;5073422;28;20196;-79
2024/01/24 01:40:27;;;;;;;45.73;10.70;;;24.00;43.80;;;;;;5067507;28;20731;-79
2024/01/24 01:42:54;;;;;;;52.50;11.47;;;24.00;43.80;;;;;;5079169;28;20229;-78
2024/01/24 01:45:23;;;;;;;41.03;10.13;;;24.00;43.70;;;;;;5077494;28;20234;-79
2024/01/24 01:47:50;;;;;;;42.97;10.83;;;24.00;43.80;;;;;;5075148;28;20213;-79
2024/01/24 01:50:18;;;;;;;43.03;9.63;;;24.00;43.80;;;;;;5085920;28;20209;-79
2024/01/24 01:52:47;;;;;;;44.97;11.27;;;24.00;43.80;;;;;;5087608;28;20203;-78
2024/01/24 01:55:15;;;;;;;47.23;11.30;;;24.10;43.80;;;;;;5082159;28;20245;-79
2024/01/24 01:57:44;;;;;;;45.00;11.23;;;24.00;43.80;;;;;;5078931;28;20227;-78
2024/01/24 02:00:19;;;;;;;58.23;11.80;;;24.00;43.80;;;;;;5072437;28;20210;-78
2024/01/24 02:02:48;;;;;;;35.63;9.90;;;24.00;43.80;;;;;;5067628;28;20191;-78
2024/01/24 02:05:16;;;;;;;53.37;11.47;;;24.00;43.80;;;;;;5071516;28;20187;-80
2024/01/24 02:07:44;;;;;;;41.63;9.97;;;24.00;43.80;;;;;;5086821;28;20191;-80
2024/01/24 02:10:12;;;;;;;47.43;11.40;;;24.00;43.80;;;;;;5068678;28;20211;-79
2024/01/24 02:12:39;;;;;;;73.40;13.90;;;24.00;43.80;;;;;;5075510;28;20287;-80
2024/01/24 02:15:07;;;;;;;57.07;10.83;;;24.00;43.80;;;;;;5070384;28;20205;-80
2024/01/24 02:17:34;;;;;;;40.27;9.47;;;24.00;43.80;;;;;;5067101;28;20289;-81
2024/01/24 02:20:03;;;;;;;36.50;9.60;;;24.00;43.80;;;;;;5068534;28;20329;-81
2024/01/24 02:22:30;;;;;;;53.00;11.07;;;24.00;43.80;;;;;;5067387;28;20195;-80
2024/01/24 02:25:00;;;;;;;50.33;12.57;;;24.00;43.80;;;;;;5066632;28;20582;-81
2024/01/24 02:27:26;;;;;;;43.93;11.50;;;24.00;43.80;;;;;;5066835;28;20209;-81
2024/01/24 02:29:57;;;;;;;35.63;9.43;;;24.00;43.80;;;;;;5071848;28;20290;-79
2024/01/24 02:32:24;;;;;;;56.97;11.87;;;24.00;43.80;;;;;;5067006;28;20238;-79
2024/01/24 02:34:51;;;;;;;45.60;12.10;;;24.00;43.80;;;;;;5066911;28;20208;-79
2024/01/24 02:37:19;;;;;;;57.47;12.43;;;24.00;43.80;;;;;;5067208;28;20326;-79
2024/01/24 02:39:47;;;;;;;49.20;10.20;;;24.00;43.90;;;;;;5070190;28;20203;-79
2024/01/24 02:42:15;;;;;;;42.40;9.13;;;24.00;43.80;;;;;;5070465;28;20204;-79
2024/01/24 02:44:42;;;;;;;48.70;11.83;;;24.00;43.80;;;;;;5074319;28;20195;-79
2024/01/24 02:47:09;;;;;;;62.27;15.53;;;24.00;43.80;;;;;;5089305;28;20625;-79
2024/01/24 02:49:36;;;;;;;90.73;13.47;;;24.00;43.80;;;;;;5089028;28;20290;-78
2024/01/24 02:52:04;;;;;;;41.47;11.03;;;24.00;43.80;;;;;;5073842;28;20569;-79
2024/01/24 02:54:31;;;;;;;75.27;12.63;;;24.00;43.80;;;;;;5070692;28;20207;-79
2024/01/24 02:56:58;;;;;;;49.27;11.03;;;24.00;43.80;;;;;;5080739;28;20686;-79
2024/01/24 02:59:26;;;;;;;53.43;11.73;;;24.00;43.80;;;;;;5090408;28;20286;-79
2024/01/24 03:01:53;;;;;;;40.73;9.90;;;24.00;43.80;;;;;;5090684;28;20199;-79
2024/01/24 03:04:20;;;;;;;49.20;11.00;;;24.00;43.80;;;;;;5090630;28;20210;-79
2024/01/24 03:06:47;;;;;;;43.90;10.57;;;24.00;43.80;;;;;;5087960;28;20679;-79
2024/01/24 03:09:14;;;;;;;73.07;12.57;;;24.00;43.80;;;;;;5084849;28;20226;-78
2024/01/24 03:11:41;;;;;;;60.50;13.37;;;24.00;43.90;;;;;;5089190;28;20253;-78
2024/01/24 03:14:08;;;;;;;42.20;11.37;;;24.00;43.80;;;;;;5074050;28;20209;-79
2024/01/24 03:16:37;;;;;;;74.33;13.00;;;24.00;43.80;;;;;;5086544;28;20288;-79
2024/01/24 03:19:05;;;;;;;37.93;10.13;;;24.00;43.80;;;;;;5070188;28;20226;-79
2024/01/24 03:21:32;;;;;;;54.13;11.33;;;24.00;43.80;;;;;;5086707;28;20199;-79
2024/01/24 03:23:59;;;;;;;43.33;11.63;;;24.00;43.80;;;;;;5068586;28;20192;-79
2024/01/24 03:26:26;;;;;;;48.50;11.27;;;24.00;43.80;;;;;;5070292;28;20274;-79
2024/01/24 03:28:53;;;;;;;43.30;10.40;;;24.00;43.80;;;;;;5069419;28;20213;-79
2024/01/24 03:31:20;;;;;;;43.07;10.60;;;24.00;43.90;;;;;;5069914;28;20215;-79
2024/01/24 03:33:48;;;;;;;63.53;11.47;;;24.00;43.90;;;;;;5069885;28;20203;-78
2024/01/24 03:36:15;;;;;;;40.30;10.70;;;24.00;43.80;;;;;;5088101;28;20217;-78
2024/01/24 03:38:43;;;;;;;68.97;11.93;;;24.00;43.80;;;;;;5080471;28;20195;-78
2024/01/24 03:41:10;;;;;;;45.77;11.23;;;24.00;43.80;;;;;;5069684;28;20300;-78
2024/01/24 03:43:40;;;;;;;47.00;10.57;;;24.00;43.80;;;;;;5069825;28;20282;-78
2024/01/24 03:46:07;;;;;;;54.40;12.20;;;24.00;43.80;;;;;;5077374;28;20194;-78
2024/01/24 03:48:34;;;;;;;44.73;12.93;;;24.00;43.80;;;;;;5087575;28;20730;-78
2024/01/24 03:51:02;;;;;;;41.20;10.40;;;24.00;43.80;;;;;;5087143;28;20246;-78
2024/01/24 03:53:29;;;;;;;54.77;11.93;;;24.00;44.50;;;;;;5089489;28;20210;-78
2024/01/24 03:55:56;;;;;;;39.30;10.40;;;23.90;43.80;;;;;;5071413;28;20206;-78
2024/01/24 03:58:23;;;;;;;47.37;11.63;;;24.00;43.80;;;;;;5069701;28;20287;-78
2024/01/24 04:00:52;;;;;;;52.63;12.37;;;24.00;43.80;;;;;;5082259;28;20202;-79
2024/01/24 04:03:19;;;;;;;42.20;10.37;;;24.00;43.80;;;;;;5089864;28;20303;-78
2024/01/24 04:05:46;;;;;;;50.50;12.10;;;24.00;43.80;;;;;;5089700;28;20286;-78
2024/01/24 04:08:14;;;;;;;46.90;10.83;;;24.00;43.80;;;;;;5085200;28;20199;-78
2024/01/24 04:10:41;;;;;;;54.17;12.03;;;24.00;43.80;;;;;;5070607;28;20203;-78
2024/01/24 04:13:08;;;;;;;51.40;12.57;;;24.00;43.90;;;;;;5069023;28;20203;-78
2024/01/24 04:15:36;;;;;;;50.77;10.47;;;24.00;43.90;;;;;;5088460;28;20218;-80
2024/01/24 04:18:03;;;;;;;66.37;12.53;;;24.00;43.80;;;;;;5087238;28;20207;-80
2024/01/24 04:20:30;;;;;;;49.07;10.73;;;24.00;43.80;;;;;;5082150;28;20298;-80
2024/01/24 04:22:58;;;;;;;50.60;12.27;;;24.00;43.80;;;;;;5089344;28;20286;-80
2024/01/24 04:25:26;;;;;;;44.67;11.33;;;24.00;43.80;;;;;;5088318;28;20237;-80
2024/01/24 04:27:53;;;;;;;58.27;11.63;;;23.90;43.80;;;;;;5088870;28;20294;-80
2024/01/24 04:30:20;;;;;;;57.83;13.43;;;24.00;43.90;;;;;;5079549;28;20306;-80
2024/01/24 04:32:47;;;;;;;40.67;9.90;;;24.00;43.80;;;;;;5089080;28;20213;-80
2024/01/24 04:35:14;;;;;;;51.57;12.77;;;24.00;43.80;;;;;;5072902;28;20290;-80
2024/01/24 04:37:41;;;;;;;65.57;12.23;;;24.00;43.80;;;;;;5068468;28;20234;-80
2024/01/24 04:40:10;;;;;;;57.53;12.13;;;24.00;43.80;;;;;;5084047;28;20202;-80
2024/01/24 04:42:38;;;;;;;54.63;12.27;;;23.90;43.80;;;;;;5082246;28;20199;-80
2024/01/24 04:45:06;;;;;;;42.50;11.43;;;23.90;43.80;;;;;;5067228;28;20761;-80
2024/01/24 04:47:33;;;;;;;48.53;12.17;;;23.90;43.80;;;;;;5068525;28;20660;-80
2024/01/24 04:50:00;;;;;;;58.77;13.20;;;24.00;43.80;;;;;;5067563;28;20265;-80
2024/01/24 04:52:27;;;;;;;47.40;11.13;;;23.90;43.80;;;;;;5068239;28;20275;-80
2024/01/24 04:54:54;;;;;;;58.77;11.17;;;24.00;43.80;;;;;;5068744;28;20282;-79
2024/01/24 04:57:20;;;;;;;39.83;11.77;;;23.90;43.70;;;;;;5075940;28;20322;-79
2024/01/24 04:59:49;;;;;;;36.60;10.63;;;24.00;43.80;;;;;;5068429;28;20203;-78
2024/01/24 05:02:16;;;;;;;48.30;10.73;;;23.90;43.70;;;;;;5071801;28;20289;-78
2024/01/24 05:04:43;;;;;;;46.23;10.53;;;23.90;43.70;;;;;;5088537;28;20195;-79
2024/01/24 05:07:10;;;;;;;48.97;11.30;;;24.00;43.80;;;;;;5078136;28;20210;-78
2024/01/24 05:09:38;;;;;;;46.40;14.73;;;23.90;43.70;;;;;;5067840;28;20310;-78
2024/01/24 05:12:06;;;;;;;65.23;12.63;;;23.90;43.70;;;;;;5067706;28;20209;-78
2024/01/24 05:14:34;;;;;;;40.37;11.17;;;24.00;43.80;;;;;;5076421;28;20277;-78
2024/01/24 05:17:02;;;;;;;60.83;12.50;;;23.90;43.70;;;;;;5074272;28;20250;-78
2024/01/24 05:19:29;;;;;;;51.57;11.77;;;24.00;43.80;;;;;;5087834;28;20306;-78
2024/01/24 05:21:56;;;;;;;44.73;12.43;;;23.90;43.70;;;;;;5087744;28;20293;-78
2024/01/24 05:24:23;;;;;;;50.90;12.50;;;24.00;43.80;;;;;;5079240;28;20195;-79
2024/01/24 05:26:50;;;;;;;55.60;13.67;;;23.90;43.70;;;;;;5073420;28;20249;-79
2024/01/24 05:29:17;;;;;;;52.73;11.93;;;23.90;43.70;;;;;;5088180;28;20365;-79
2024/01/24 05:31:43;;;;;;;71.27;13.13;;;23.90;43.70;;;;;;5086996;28;20302;-79
2024/01/24 05:34:12;;;;;;;62.07;14.03;;;23.90;43.70;;;;;;5072269;28;20206;-79
2024/01/24 05:36:40;;;;;;;46.37;11.50;;;23.90;43.70;;;;;;5079521;28;20235;-79
2024/01/24 05:39:07;;;;;;;58.30;12.07;;;23.90;43.70;;;;;;5067861;28;20285;-79
2024/01/24 05:41:35;;;;;;;62.10;24.63;;;24.00;43.80;;;;;;5077437;28;20282;-79
2024/01/24 05:44:02;;;;;;;60.63;18.57;;;23.90;44.30;;;;;;5067290;28;20404;-79
2024/01/24 05:46:29;;;;;;;55.57;19.03;;;23.90;43.70;;;;;;5068072;28;20203;-80
2024/01/24 05:48:56;;;;;;;54.33;18.07;;;23.90;43.70;;;;;;5067395;28;20557;-80
2024/01/24 05:51:24;;;;;;;66.33;18.07;;;24.00;43.80;;;;;;5069170;28;20207;-80
2024/01/24 05:53:51;;;;;;;50.43;15.70;;;23.90;43.70;;;;;;5087044;28;20293;-80
2024/01/24 05:56:18;;;;;;;55.93;16.63;;;23.90;43.70;;;;;;5077196;28;20239;-80
2024/01/24 05:58:45;;;;;;;47.00;18.77;;;23.90;43.70;;;;;;5075797;28;20199;-79
2024/01/24 06:01:12;;;;;;;79.17;28.83;;;23.90;43.80;;;;;;5087432;28;20202;-81
2024/01/24 06:03:41;;;;;;;55.60;19.77;;;23.90;43.80;;;;;;5075252;28;20202;-74
2024/01/24 06:06:07;;;;;;;53.23;19.50;;;23.90;44.00;;;;;;5070409;28;20221;-74
2024/01/24 06:08:37;;;;;;;63.57;19.60;;;23.90;44.00;;;;;;5080959;28;20207;-76
2024/01/24 06:11:04;;;;;;;58.23;27.10;;;23.90;44.10;;;;;;5078151;28;20203;-74
2024/01/24 06:13:31;;;;;;;49.80;18.37;;;24.00;44.20;;;;;;5083998;28;20674;-75
2024/01/24 06:15:58;;;;;;;60.30;19.33;;;24.00;44.30;;;;;;5092243;28;20229;-78
2024/01/24 06:18:25;;;;;;;79.87;19.77;;;24.00;45.00;;;;;;5089572;28;20238;-74
2024/01/24 06:20:52;;;;;;;59.33;18.77;;;24.00;44.40;;;;;;5071190;28;20299;-76
2024/01/24 06:23:18;;;;;;;49.83;19.30;;;24.00;45.00;;;;;;5080136;28;20218;-78
2024/01/24 06:25:47;;;;;;;57.87;17.10;;;24.00;44.40;;;;;;5084906;28;20241;-70
2024/01/24 06:28:14;;;;;;;46.57;17.83;;;24.00;44.40;;;;;;5078589;28;20199;-72
2024/01/24 06:30:41;;;;;;;53.37;16.83;;;24.00;44.30;;;;;;5087264;28;20301;-73
2024/01/24 06:33:08;;;;;;;51.23;17.67;;;24.00;44.40;;;;;;5078497;28;20226;-72
2024/01/24 06:35:35;;;;;;;57.37;17.87;;;24.00;44.40;;;;;;5070836;28;20210;-73
2024/01/24 06:38:02;;;;;;;40.87;16.33;;;24.10;44.50;;;;;;5071128;28;20223;-72
2024/01/24 06:40:29;;;;;;;56.80;18.30;;;24.10;44.50;;;;;;5083940;28;20216;-72
2024/01/24 06:42:58;;;;;;;54.83;12.70;;;24.10;44.50;;;;;;5081410;28;20628;-71
2024/01/24 06:45:25;;;;;;;48.97;12.50;;;24.10;44.30;;;;;;5091129;28;20199;-67
2024/01/24 06:47:52;;;;;;;42.57;12.03;;;24.10;44.10;;;;;;5090500;28;20659;-68
2024/01/24 06:50:19;;;;;;;44.37;11.00;;;24.10;44.10;;;;;;5091045;28;20198;-67
2024/01/24 06:52:46;;;;;;;44.70;10.97;;;24.10;44.60;;;;;;5091142;28;20191;-68
2024/01/24 06:55:14;;;;;;;47.57;11.70;;;24.10;43.90;;;;;;5090372;28;20203;-68
2024/01/24 06:57:41;;;;;;;46.77;12.43;;;24.10;43.80;;;;;;5091027;28;20222;-68
2024/01/24 07:00:11;;;;;;;46.37;12.50;;;24.20;43.90;;;;;;5090942;28;20230;-67
2024/01/24 07:02:38;;;;;;;43.10;11.00;;;24.20;43.90;;;;;;5089468;28;20990;-69
2024/01/24 07:05:06;;;;;;;55.97;16.90;;;24.10;44.00;;;;;;5086145;28;20199;-66
2024/01/24 07:07:33;;;;;;;49.67;11.23;;;24.10;44.10;;;;;;5077227;28;20235;-71
2024/01/24 07:10:01;;;;;;;45.80;12.77;;;24.10;43.80;;;;;;5070559;28;20558;-69
2024/01/24 07:12:27;;;;;;;47.63;13.00;;;24.50;44.20;;;;;;5070383;28;20210;-68
2024/01/24 07:14:55;;;;;;;46.73;12.23;;;24.20;43.80;;;;;;5083587;28;20209;-68
2024/01/24 07:17:23;;;;;;;44.63;12.90;;;24.30;43.80;;;;;;5090184;28;20223;-69
2024/01/24 07:19:51;;;;;;;48.97;12.73;;;24.30;43.60;;;;;;5090517;28;20218;-69
2024/01/24 07:22:18;;;;;;;51.83;14.33;;;24.30;43.60;;;;;;5090415;28;20822;-74
2024/01/24 07:24:45;;;;;;;76.60;17.70;;;24.30;43.50;;;;;;5080423;28;20293;-76
2024/01/24 07:27:12;;;;;;;55.40;16.50;;;24.30;43.50;;;;;;5070092;28;20214;-78
2024/01/24 07:29:39;;;;;;;54.03;16.10;;;24.30;43.50;;;;;;5070170;28;20197;-69
2024/01/24 07:32:07;;;;;;;57.43;18.37;;;24.30;43.50;;;;;;5069520;28;20211;-72
2024/01/24 07:34:38;;;;;;;74.33;18.93;;;24.30;43.40;;;;;;5080278;28;20209;-73
2024/01/24 07:37:05;;;;;;;74.70;18.93;;;24.20;43.30;;;;;;5090209;28;20595;-76
2024/01/24 07:39:32;;;;;;;41.37;16.00;;;24.20;43.30;;;;;;5090489;28;20264;-69
2024/01/24 07:41:59;;;;;;;41.93;17.90;;;24.20;43.30;;;;;;5090766;28;20298;-76
2024/01/24 07:44:26;;;;;;;43.47;17.00;;;24.20;43.30;;;;;;5080528;28;20246;-78
2024/01/24 07:46:53;;;;;;;46.43;17.43;;;24.20;43.20;;;;;;5069335;28;20460;-79
2024/01/24 07:49:20;;;;;;;41.80;16.30;;;24.20;43.30;;;;;;5069872;28;20203;-79
2024/01/24 07:51:49;;;;;;;47.47;17.60;;;24.20;43.20;;;;;;5069599;28;20659;-78
2024/01/24 07:54:17;;;;;;;39.83;15.33;;;24.10;43.10;;;;;;5077146;28;20199;-79
2024/01/24 07:56:44;;;;;;;52.43;18.23;;;24.10;43.10;;;;;;5089764;28;20207;-78
2024/01/24 07:59:15;;;;;;;72.60;19.10;;;24.10;43.10;;;;;;5089477;28;20218;-75
2024/01/24 08:01:46;;;;;;;44.93;16.77;;;24.10;43.10;;;;;;5089810;28;20209;-76
2024/01/24 08:04:13;;;;;;;45.23;17.10;;;24.10;43.70;;;;;;5082496;28;20626;-69
2024/01/24 08:06:40;;;;;;;55.10;18.70;;;24.10;43.10;;;;;;5069592;28;20196;-69
2024/01/24 08:09:10;;;;;;;50.60;17.90;;;24.10;43.10;;;;;;5069540;28;20291;-68
2024/01/24 08:11:37;;;;;;;51.30;18.87;;;24.10;43.10;;;;;;5069219;28;20294;-69
2024/01/24 08:14:04;;;;;;;57.77;19.00;;;24.10;43.10;;;;;;5073793;28;20795;-68
2024/01/24 08:16:31;;;;;;;41.87;17.17;;;24.10;43.10;;;;;;5089500;28;20209;-69
2024/01/24 08:18:58;;;;;;;58.77;18.37;;;24.10;43.10;;;;;;5085386;28;20317;-69
2024/01/24 08:21:25;;;;;;;50.17;16.93;;;24.10;43.10;;;;;;5089371;28;20753;-69
2024/01/24 08:23:52;;;;;;;54.00;18.27;;;24.00;43.00;;;;;;5088742;28;20274;-69
2024/01/24 08:26:21;;;;;;;52.57;18.20;;;24.00;43.00;;;;;;5089669;28;20187;-69
2024/01/24 08:28:48;;;;;;;43.93;17.30;;;24.00;43.60;;;;;;5088885;28;20681;-68
2024/01/24 08:31:15;;;;;;;59.13;18.93;;;24.00;43.00;;;;;;5089222;28;20828;-68
2024/01/24 08:33:42;;;;;;;54.13;17.50;;;24.00;43.00;;;;;;5087153;28;20697;-69
2024/01/24 08:36:09;;;;;;;65.10;19.40;;;24.00;43.00;;;;;;5068577;28;20282;-69
2024/01/24 08:38:36;;;;;;;53.67;18.47;;;24.00;43.00;;;;;;5068827;28;20226;-69
2024/01/24 08:41:04;;;;;;;60.90;18.33;;;24.00;43.00;;;;;;5068575;28;20214;-71
2024/01/24 08:43:32;;;;;;;54.13;19.33;;;24.00;43.00;;;;;;5068623;28;20856;-69
2024/01/24 08:45:59;;;;;;;57.03;18.30;;;24.00;43.00;;;;;;5068667;28;20205;-68
2024/01/24 08:48:26;;;;;;;53.90;18.87;;;24.00;43.00;;;;;;5068709;28;20294;-72
2024/01/24 08:50:53;;;;;;;59.07;19.30;;;24.00;43.00;;;;;;5068671;28;20207;-69
2024/01/24 08:53:20;;;;;;;37.43;16.83;;;24.00;43.00;;;;;;5068940;28;20296;-70
2024/01/24 08:55:47;;;;;;;47.17;17.77;;;24.00;43.00;;;;;;5068563;28;20286;-68
2024/01/24 08:58:14;;;;;;;52.47;19.77;;;24.00;43.00;;;;;;5068349;28;20315;-68
2024/01/24 09:00:44;;;;;;;51.47;18.47;;;24.00;43.00;;;;;;5068220;28;20207;-68
2024/01/24 09:03:12;;;;;;;69.33;20.13;;;24.00;43.00;;;;;;5068110;28;20666;-68
2024/01/24 09:05:39;;;;;;;40.33;17.50;;;24.00;43.00;;;;;;5068136;28;20199;-68
2024/01/24 09:08:05;;;;;;;62.17;18.73;;;24.00;43.60;;;;;;5068279;28;20199;-69
2024/01/24 09:10:33;;;;;;;43.70;17.93;;;24.00;43.00;;;;;;5068644;28;20199;-69
2024/01/24 09:13:01;;;;;;;68.13;19.20;;;24.00;43.00;;;;;;5068163;28;20196;-68
2024/01/24 09:15:28;;;;;;;46.20;18.40;;;24.00;43.00;;;;;;5067989;28;20302;-69
2024/01/24 09:17:56;;;;;;;46.17;16.60;;;24.00;43.00;;;;;;5080966;28;20233;-70
2024/01/24 09:20:23;;;;;;;51.90;17.70;;;24.00;43.00;;;;;;5088266;28;20218;-68
2024/01/24 09:22:50;;;;;;;57.37;21.13;;;24.00;43.60;;;;;;5088438;28;20199;-69
2024/01/24 09:25:19;;;;;;;53.33;17.93;;;24.00;43.00;;;;;;5088218;28;20191;-68
2024/01/24 09:27:46;;;;;;;48.13;18.43;;;24.00;43.00;;;;;;5087534;28;20222;-68
2024/01/24 09:30:13;;;;;;;49.97;16.80;;;24.10;43.10;;;;;;5087930;28;20203;-68
2024/01/24 09:32:40;;;;;;;43.07;19.00;;;24.10;43.10;;;;;;5088293;28;20209;-68
2024/01/24 09:35:09;;;;;;;45.73;18.80;;;24.10;43.10;;;;;;5087880;28;20722;-68
2024/01/24 09:37:36;;;;;;;41.47;18.83;;;24.10;43.10;;;;;;5078380;28;20196;-68
2024/01/24 09:40:03;;;;;;;54.60;19.03;;;24.10;43.10;;;;;;5067876;28;20304;-69
2024/01/24 09:42:33;;;;;;;58.10;17.83;;;24.10;43.10;;;;;;5067774;28;20195;-68
2024/01/24 09:45:02;;;;;;;43.80;18.37;;;24.10;43.10;;;;;;5067690;28;20678;-68
2024/01/24 09:47:29;;;;;;;58.23;18.57;;;24.10;43.10;;;;;;5066600;28;20223;-68
2024/01/24 09:49:56;;;;;;;50.03;19.50;;;24.10;43.10;;;;;;5067605;28;20294;-68
2024/01/24 09:52:26;;;;;;;61.40;19.13;;;24.10;43.00;;;;;;5067274;28;20289;-70
2024/01/24 09:54:56;;;;;;;42.90;16.43;;;24.20;43.10;;;;;;5067566;28;20211;-69
2024/01/24 09:57:24;;;;;;;53.37;18.07;;;24.20;43.10;;;;;;5072599;28;20613;-68
2024/01/24 09:59:51;;;;;;;49.50;19.03;;;24.20;43.10;;;;;;5087772;28;20225;-74
2024/01/24 10:02:18;;;;;;;57.33;19.27;;;24.20;43.00;;;;;;5082431;28;20206;-71
2024/01/24 10:04:45;;;;;;;45.73;16.37;;;24.20;43.00;;;;;;5067920;28;20200;-73
2024/01/24 10:07:14;;;;;;;45.63;17.37;;;24.20;43.00;;;;;;5068140;28;20198;-69
2024/01/24 10:09:42;;;;;;;76.40;18.93;;;24.30;43.10;;;;;;5072600;28;20380;-70
2024/01/24 10:12:09;;;;;;;55.53;19.13;;;24.30;43.60;;;;;;5087606;28;20191;-73
2024/01/24 10:14:40;;;;;;;50.60;17.27;;;24.30;43.00;;;;;;5087615;28;20254;-71
2024/01/24 10:17:10;;;;;;;50.03;15.97;;;24.30;43.00;;;;;;5086713;28;20305;-70
2024/01/24 10:19:37;;;;;;;53.17;16.73;;;24.40;43.10;;;;;;5087440;28;20234;-72
2024/01/24 10:22:04;;;;;;;49.70;16.87;;;24.40;43.10;;;;;;5087727;28;20186;-72
2024/01/24 10:24:32;;;;;;;56.17;17.93;;;24.40;43.10;;;;;;5087226;28;20311;-74
2024/01/24 10:27:00;;;;;;;66.70;19.50;;;24.40;43.10;;;;;;5086724;28;20213;-75
2024/01/24 10:29:27;;;;;;;68.10;18.73;;;24.40;43.10;;;;;;5087568;28;20290;-69
2024/01/24 10:31:56;;;;;;;47.77;16.70;;;24.50;43.10;;;;;;5087383;28;20210;-70
2024/01/24 10:34:27;;;;;;;52.37;18.27;;;24.60;43.20;;;;;;5088111;28;20286;-77
2024/01/24 10:36:54;;;;;;;59.17;20.17;;;24.60;43.20;;;;;;5086406;28;20195;-70
2024/01/24 10:39:22;;;;;;;46.77;17.77;;;24.70;43.20;;;;;;5087246;28;20228;-73
2024/01/24 10:41:54;;;;;;;57.37;18.27;;;24.70;43.10;;;;;;5087421;28;20206;-76
2024/01/24 10:44:25;;;;;;;52.40;19.30;;;24.80;43.20;;;;;;5087559;28;20207;-78
2024/01/24 10:46:52;;;;;;;48.37;17.80;;;24.80;43.70;;;;;;5087088;28;20282;-78
2024/01/24 10:49:20;;;;;;;43.83;17.73;;;24.80;43.10;;;;;;5087624;28;20991;-71
2024/01/24 10:51:48;;;;;;;55.93;18.73;;;24.90;43.20;;;;;;5083086;28;20215;-73
2024/01/24 10:54:16;;;;;;;47.80;18.83;;;25.00;43.20;;;;;;5067079;28;20269;-75
2024/01/24 10:56:47;;;;;;;55.50;18.97;;;25.10;43.10;;;;;;5067192;28;20235;-75
2024/01/24 10:59:14;;;;;;;56.10;18.87;;;25.10;43.10;;;;;;5068351;28;20260;-73
2024/01/24 11:01:43;;;;;;;58.33;19.40;;;25.20;43.10;;;;;;5072961;28;20203;-71
2024/01/24 11:04:11;;;;;;;51.57;19.03;;;25.30;43.10;;;;;;5091311;28;20286;-69
2024/01/24 11:06:44;;;;;;;56.37;18.23;;;25.40;43.20;;;;;;5090984;28;20209;-69
2024/01/24 11:09:23;;;;;;;44.57;17.70;;;25.40;43.10;;;;;;5084747;28;20192;-71
2024/01/24 11:11:54;;;;;;;59.63;18.33;;;25.50;43.10;;;;;;5070836;28;20207;-70
2024/01/24 11:14:30;;;;;;;49.53;17.80;;;25.60;43.10;;;;;;5070849;28;20206;-69
2024/01/24 11:16:59;;;;;;;55.17;16.77;;;25.70;43.00;;;;;;5078497;28;20187;-69
2024/01/24 11:19:26;;;;;;;56.30;18.57;;;25.80;43.00;;;;;;5070752;28;20231;-70
2024/01/24 11:21:55;;;;;;;71.80;19.30;;;25.90;43.00;;;;;;5070834;28;20298;-72
2024/01/24 11:24:52;;;;;;;60.53;18.57;;;25.90;42.80;;;;;;5070548;28;20570;-69
2024/01/24 11:27:32;;;;;;;60.83;19.00;;;26.10;42.60;;;;;;5087111;28;20579;-70
2024/01/24 11:30:02;;;;;;;47.87;17.00;;;26.10;42.60;;;;;;5090430;28;20210;-72
2024/01/24 11:33:02;;;;;;;60.93;17.70;;;26.20;42.60;;;;;;5090627;28;20211;-69
2024/01/24 11:35:33;;;;;;;67.97;18.33;;;26.20;42.10;;;;;;5089476;28;20249;-71
2024/01/24 11:38:01;;;;;;;57.70;18.57;;;26.30;42.20;;;;;;5085890;28;20192;-72
2024/01/24 11:40:28;;;;;;;57.10;18.97;;;26.30;42.30;;;;;;5070036;28;20235;-73
2024/01/24 11:42:56;;;;;;;54.67;19.07;;;26.30;42.20;;;;;;5077413;28;20224;-71
2024/01/24 11:45:25;;;;;;;53.47;19.77;;;26.30;42.20;;;;;;5090413;28;20205;-72
2024/01/24 11:47:52;;;;;;;49.20;17.23;;;26.30;42.20;;;;;;5089635;28;20241;-69
2024/01/24 11:50:21;;;;;;;49.30;18.13;;;26.40;42.30;;;;;;5090422;28;20191;-72
2024/01/24 11:52:48;;;;;;;52.70;18.27;;;26.40;42.30;;;;;;5088963;28;20675;-76
2024/01/24 11:55:15;;;;;;;59.90;18.30;;;26.30;42.90;;;;;;5090473;28;20287;-75
2024/01/24 11:57:42;;;;;;;63.37;18.83;;;26.40;42.30;;;;;;5090611;28;20252;-74
2024/01/24 12:00:14;;;;;;;58.80;17.97;;;26.40;42.20;;;;;;5079558;28;20318;-71
2024/01/24 12:02:41;;;;;;;49.00;16.60;;;26.40;42.20;;;;;;5070183;28;20231;-76
2024/01/24 12:05:09;;;;;;;48.77;16.13;;;26.40;42.10;;;;;;5074697;28;20248;-70
2024/01/24 12:07:38;;;;;;;39.83;16.40;;;26.40;42.10;;;;;;5090170;28;20191;-78
2024/01/24 12:10:08;;;;;;;52.47;18.23;;;26.40;42.10;;;;;;5089682;28;20206;-72
2024/01/24 12:12:36;;;;;;;61.87;18.37;;;26.40;42.00;;;;;;5089673;28;20669;-79
2024/01/24 12:15:03;;;;;;;42.37;17.70;;;26.40;42.00;;;;;;5089935;28;20238;-77
2024/01/24 12:17:30;;;;;;;49.53;17.90;;;26.40;42.00;;;;;;5089251;28;20195;-77
2024/01/24 12:19:59;;;;;;;51.23;16.37;;;26.30;41.90;;;;;;5088838;28;20244;-70
2024/01/24 12:22:26;;;;;;;48.23;18.83;;;26.40;41.90;;;;;;5069725;28;20199;-69
2024/01/24 12:24:55;;;;;;;65.20;18.17;;;26.40;41.90;;;;;;5069258;28;20203;-70
2024/01/24 12:27:22;;;;;;;60.30;17.57;;;26.40;41.80;;;;;;5068903;28;20595;-69
2024/01/24 12:29:51;;;;;;;60.17;18.17;;;26.40;41.90;;;;;;5068782;28;20208;-69
2024/01/24 12:32:18;;;;;;;59.73;18.53;;;26.40;41.80;;;;;;5078114;28;20215;-69